Time;durP1;ratioP1;P1;durP2;ratioP2;P2;SDS_P1;SDS_P2;PMS_P1;PMS_P2;Temp;Humidity;BMP_temperature;BMP_pressure;BME280_temperature;BME280_humidity;BME280_pressure;Samples;Min_cycle;Max_cycle;Signal;HPM_P1;HPM_P2
2023/05/02 00:00:44;;;;;;;5.40;3.38;;;18.70;65.50;;;;;;5041337;28;45235;-72
2023/05/02 00:03:11;;;;;;;4.82;3.38;;;18.70;65.60;;;;;;5040854;28;48558;-72
2023/05/02 00:05:39;;;;;;;5.95;3.40;;;18.70;65.60;;;;;;5040881;27;45328;-72
2023/05/02 00:08:06;;;;;;;4.82;3.22;;;18.70;65.70;;;;;;5041408;28;45384;-72
2023/05/02 00:10:34;;;;;;;4.32;3.30;;;18.70;65.80;;;;;;5041378;28;45294;-72
2023/05/02 00:13:01;;;;;;;5.97;3.80;;;18.70;65.80;;;;;;5040682;28;46272;-72
2023/05/02 00:15:28;;;;;;;4.18;3.15;;;18.70;65.80;;;;;;5040954;28;45265;-72
2023/05/02 00:17:55;;;;;;;4.85;3.40;;;18.70;65.90;;;;;;5041239;28;45511;-72
2023/05/02 00:20:21;;;;;;;4.97;3.05;;;18.70;65.80;;;;;;5041161;28;45209;-72
2023/05/02 00:22:48;;;;;;;5.15;3.28;;;18.70;65.90;;;;;;5041181;28;46704;-72
2023/05/02 00:25:16;;;;;;;3.92;2.88;;;18.70;65.90;;;;;;5040803;28;45389;-72
2023/05/02 00:27:45;;;;;;;4.43;3.38;;;18.60;65.70;;;;;;5041479;28;45270;-72
2023/05/02 00:30:13;;;;;;;5.47;3.05;;;18.70;65.80;;;;;;5041358;28;45382;-72
2023/05/02 00:32:39;;;;;;;4.10;3.03;;;18.60;65.80;;;;;;5040758;28;48998;-72
2023/05/02 00:35:07;;;;;;;3.80;2.88;;;18.70;65.80;;;;;;5040501;28;45395;-72
2023/05/02 00:37:34;;;;;;;4.05;3.08;;;18.70;65.90;;;;;;5040919;28;45247;-71
2023/05/02 00:40:01;;;;;;;6.05;3.30;;;18.70;65.90;;;;;;5040768;28;45438;-71
2023/05/02 00:42:30;;;;;;;4.03;3.00;;;18.70;67.00;;;;;;5040726;28;45482;-72
2023/05/02 00:44:58;;;;;;;4.65;3.08;;;18.70;65.90;;;;;;5039596;28;45389;-72
2023/05/02 00:47:25;;;;;;;3.95;2.85;;;18.70;65.90;;;;;;5040467;28;45339;-72
2023/05/02 00:49:52;;;;;;;5.20;3.30;;;18.70;65.90;;;;;;5039233;28;45349;-73
2023/05/02 00:52:20;;;;;;;5.53;3.80;;;18.70;65.80;;;;;;5040625;28;46088;-71
2023/05/02 00:54:47;;;;;;;5.55;3.80;;;18.70;65.70;;;;;;5040085;28;45415;-72
2023/05/02 00:57:14;;;;;;;4.80;3.42;;;18.70;65.70;;;;;;5040484;28;45397;-70
2023/05/02 00:59:41;;;;;;;6.82;4.00;;;18.70;65.60;;;;;;5040530;27;45426;-71
2023/05/02 01:02:25;;;;;;;6.00;3.95;;;18.70;65.60;;;;;;5039855;28;46583;-71
2023/05/02 01:05:02;;;;;;;5.55;3.72;;;18.70;65.60;;;;;;5040017;28;45671;-71
2023/05/02 01:07:44;;;;;;;5.32;3.70;;;18.70;65.70;;;;;;5040611;28;45341;-71
2023/05/02 01:10:21;;;;;;;5.47;3.38;;;18.60;65.80;;;;;;5042647;28;45418;-71
2023/05/02 01:12:59;;;;;;;4.00;3.03;;;18.60;65.90;;;;;;5043706;28;46564;-72
2023/05/02 01:15:26;;;;;;;6.22;3.80;;;18.60;65.90;;;;;;5043199;28;45284;-72
2023/05/02 01:17:56;;;;;;;6.10;3.55;;;18.60;66.00;;;;;;5043403;28;45351;-71
2023/05/02 01:20:27;;;;;;;5.32;3.60;;;18.70;66.00;;;;;;5043249;28;45433;-71
2023/05/02 01:22:58;;;;;;;6.28;3.97;;;18.70;66.00;;;;;;5043119;28;45564;-72
2023/05/02 01:25:33;;;;;;;5.93;3.70;;;18.70;66.10;;;;;;5043390;28;45273;-71
2023/05/02 01:28:10;;;;;;;5.43;3.92;;;18.70;66.20;;;;;;5043373;28;45412;-72
2023/05/02 01:30:42;;;;;;;6.63;4.32;;;18.70;66.10;;;;;;5030445;27;45437;-71
2023/05/02 01:33:13;;;;;;;6.35;4.30;;;18.70;66.10;;;;;;5042912;28;48360;-71
2023/05/02 01:35:41;;;;;;;7.93;4.38;;;18.70;66.00;;;;;;5043058;27;45499;-72
2023/05/02 01:38:08;;;;;;;6.65;4.35;;;18.70;66.10;;;;;;5043075;28;45443;-72
2023/05/02 01:40:36;;;;;;;7.13;4.45;;;18.70;66.10;;;;;;5043047;27;45251;-72
2023/05/02 01:43:05;;;;;;;6.57;4.75;;;18.70;66.10;;;;;;5042606;28;47473;-72
2023/05/02 01:45:34;;;;;;;6.45;4.32;;;18.70;66.10;;;;;;5042159;28;45204;-71
2023/05/02 01:48:05;;;;;;;8.45;4.90;;;18.70;66.10;;;;;;5043218;28;45269;-70
2023/05/02 01:50:32;;;;;;;9.32;5.15;;;18.60;66.10;;;;;;5041892;28;45302;-72
2023/05/02 01:53:00;;;;;;;6.15;4.35;;;18.60;66.10;;;;;;5042607;28;46458;-72
2023/05/02 01:55:28;;;;;;;6.88;4.38;;;18.60;66.10;;;;;;5042746;28;45407;-71
2023/05/02 01:57:56;;;;;;;6.88;4.40;;;18.70;66.30;;;;;;5043313;28;45403;-72
2023/05/02 02:00:25;;;;;;;6.75;4.28;;;18.70;66.40;;;;;;5043002;28;45451;-71
2023/05/02 02:02:55;;;;;;;6.18;4.40;;;18.60;66.30;;;;;;5042732;27;45315;-72
2023/05/02 02:05:25;;;;;;;6.68;4.28;;;18.70;66.40;;;;;;5042751;27;45267;-71
2023/05/02 02:07:52;;;;;;;6.78;4.05;;;18.70;66.40;;;;;;5042783;28;45280;-72
2023/05/02 02:10:19;;;;;;;6.57;3.67;;;18.70;66.40;;;;;;5042530;28;45574;-72
2023/05/02 02:12:53;;;;;;;6.20;4.13;;;18.70;66.50;;;;;;5042674;28;46290;-72
2023/05/02 02:15:25;;;;;;;5.63;3.90;;;18.70;66.40;;;;;;5040616;28;45281;-72
2023/05/02 02:17:58;;;;;;;9.23;4.65;;;18.70;66.40;;;;;;5042542;28;45286;-72
2023/05/02 02:20:28;;;;;;;6.03;4.20;;;18.60;66.30;;;;;;5042023;28;45249;-72
2023/05/02 02:22:56;;;;;;;6.72;4.00;;;18.70;66.50;;;;;;5042275;28;47290;-72
2023/05/02 02:25:23;;;;;;;5.10;3.60;;;18.70;66.50;;;;;;5042408;28;45267;-72
2023/05/02 02:27:50;;;;;;;5.90;3.90;;;18.70;66.60;;;;;;5042552;28;45310;-72
2023/05/02 02:30:17;;;;;;;5.93;3.90;;;18.60;67.50;;;;;;5037083;28;45545;-72
2023/05/02 02:32:44;;;;;;;4.65;3.67;;;18.70;66.60;;;;;;5042469;28;45330;-72
2023/05/02 02:35:11;;;;;;;5.80;3.92;;;18.70;66.60;;;;;;5041914;28;45338;-71
2023/05/02 02:37:44;;;;;;;6.65;3.90;;;18.60;66.60;;;;;;5042465;28;45403;-72
2023/05/02 02:40:19;;;;;;;6.72;3.97;;;18.60;66.70;;;;;;5042831;28;45207;-71
2023/05/02 02:42:52;;;;;;;8.32;3.97;;;18.70;66.70;;;;;;5041883;28;48583;-72
2023/05/02 02:45:30;;;;;;;7.07;3.70;;;18.60;66.70;;;;;;5041842;28;45205;-72
2023/05/02 02:48:16;;;;;;;4.78;3.30;;;18.60;66.80;;;;;;5042069;28;45304;-72
2023/05/02 02:50:57;;;;;;;4.65;3.60;;;18.60;66.90;;;;;;5040617;28;45379;-72
2023/05/02 02:53:34;;;;;;;5.97;3.53;;;18.60;67.00;;;;;;5042178;28;47076;-72
2023/05/02 02:56:05;;;;;;;5.07;3.40;;;18.60;67.00;;;;;;5041530;28;45639;-72
2023/05/02 02:58:43;;;;;;;5.40;3.28;;;18.60;67.00;;;;;;5042222;28;45156;-72
2023/05/02 03:01:15;;;;;;;5.25;3.35;;;18.60;67.00;;;;;;5042152;28;45420;-72
2023/05/02 03:03:44;;;;;;;6.07;3.60;;;18.60;67.00;;;;;;5042038;28;47134;-72
2023/05/02 03:06:11;;;;;;;5.57;2.97;;;18.60;67.00;;;;;;5041631;28;45309;-72
2023/05/02 03:08:43;;;;;;;5.15;3.60;;;18.60;67.00;;;;;;5042109;28;45446;-72
2023/05/02 03:11:10;;;;;;;4.53;3.38;;;18.60;67.00;;;;;;5041782;28;45547;-72
2023/05/02 03:13:37;;;;;;;5.18;3.13;;;18.60;67.00;;;;;;5041552;28;46733;-72
2023/05/02 03:16:32;;;;;;;5.55;3.40;;;18.60;67.10;;;;;;5041484;28;45211;-72
2023/05/02 03:18:59;;;;;;;3.95;2.53;;;18.60;67.10;;;;;;5041990;28;45316;-72
2023/05/02 03:21:26;;;;;;;5.03;3.05;;;18.60;67.10;;;;;;5041958;28;45254;-72
2023/05/02 03:23:54;;;;;;;5.45;2.75;;;18.60;67.20;;;;;;5040965;28;46269;-72
2023/05/02 03:26:21;;;;;;;4.80;3.08;;;18.60;67.10;;;;;;5041479;27;45356;-71
2023/05/02 03:28:49;;;;;;;4.57;3.13;;;18.60;67.10;;;;;;5041766;28;45327;-72
2023/05/02 03:31:15;;;;;;;5.80;3.40;;;18.60;67.10;;;;;;5025895;28;45737;-72
2023/05/02 03:33:42;;;;;;;6.00;3.30;;;18.60;67.00;;;;;;5040036;28;46441;-72
2023/05/02 03:36:10;;;;;;;4.90;3.15;;;18.60;67.10;;;;;;5041455;28;45331;-72
2023/05/02 03:38:36;;;;;;;5.45;3.03;;;18.60;67.00;;;;;;5041687;28;45334;-72
2023/05/02 03:41:05;;;;;;;6.32;3.60;;;18.60;67.00;;;;;;5041344;27;45318;-72
2023/05/02 03:43:32;;;;;;;5.05;3.13;;;18.70;67.10;;;;;;5041411;27;45372;-72
2023/05/02 03:46:04;;;;;;;4.53;3.10;;;18.60;67.00;;;;;;5040795;28;45331;-72
2023/05/02 03:48:30;;;;;;;3.58;2.80;;;18.60;67.00;;;;;;5041465;28;45219;-72
2023/05/02 03:50:57;;;;;;;4.88;3.33;;;18.60;67.00;;;;;;5041147;28;45259;-72
2023/05/02 03:53:24;;;;;;;4.35;2.80;;;18.60;66.90;;;;;;5041193;28;47564;-72
2023/05/02 03:55:51;;;;;;;4.30;2.78;;;18.60;67.00;;;;;;5041307;28;45727;-72
2023/05/02 03:58:19;;;;;;;4.13;2.92;;;18.60;67.00;;;;;;5041196;28;45334;-72
2023/05/02 04:00:46;;;;;;;4.00;2.55;;;18.60;66.90;;;;;;5041449;28;45259;-72
2023/05/02 04:03:13;;;;;;;4.55;3.05;;;18.60;66.90;;;;;;5041231;28;45309;-72
2023/05/02 04:05:40;;;;;;;4.38;2.92;;;18.60;66.90;;;;;;5040833;28;45407;-72
2023/05/02 04:08:06;;;;;;;4.55;3.33;;;18.60;67.00;;;;;;5041030;28;45456;-72
2023/05/02 04:10:33;;;;;;;5.60;2.63;;;18.60;66.90;;;;;;5041442;28;45417;-72
2023/05/02 04:13:01;;;;;;;4.47;2.90;;;18.60;66.90;;;;;;5040739;28;46613;-72
2023/05/02 04:15:30;;;;;;;3.83;2.60;;;18.60;66.90;;;;;;5041063;28;45278;-71
2023/05/02 04:17:58;;;;;;;4.07;2.95;;;18.60;66.90;;;;;;5041266;28;45270;-72
2023/05/02 04:20:24;;;;;;;3.40;2.38;;;18.60;66.80;;;;;;5041246;27;45236;-72
2023/05/02 04:22:52;;;;;;;4.25;2.95;;;18.60;66.80;;;;;;5040958;28;46622;-72
2023/05/02 04:25:18;;;;;;;4.40;2.90;;;18.60;67.30;;;;;;5040851;28;45256;-72
2023/05/02 04:27:45;;;;;;;4.00;2.60;;;18.70;66.90;;;;;;5041375;28;45242;-72
2023/05/02 04:30:12;;;;;;;4.50;2.72;;;18.70;66.90;;;;;;5041027;28;45494;-72
2023/05/02 04:32:41;;;;;;;6.45;2.85;;;18.70;66.90;;;;;;5040692;28;46316;-72
2023/05/02 04:35:08;;;;;;;4.70;2.92;;;18.60;66.70;;;;;;5040484;28;45428;-72
2023/05/02 04:37:35;;;;;;;3.92;2.70;;;18.60;66.80;;;;;;5040998;28;45299;-71
2023/05/02 04:40:03;;;;;;;4.22;2.45;;;18.60;66.80;;;;;;5040979;28;45305;-72
2023/05/02 04:42:30;;;;;;;3.80;2.88;;;18.60;66.80;;;;;;5040401;28;46575;-72
2023/05/02 04:44:57;;;;;;;3.53;2.33;;;18.60;66.80;;;;;;5041508;28;45368;-72
2023/05/02 04:47:23;;;;;;;4.13;2.88;;;18.60;67.30;;;;;;5043735;28;45131;-72
2023/05/02 04:49:51;;;;;;;4.75;2.95;;;18.60;66.90;;;;;;5043544;27;45575;-72
2023/05/02 04:52:18;;;;;;;3.72;2.35;;;18.60;66.80;;;;;;5043710;28;48004;-71
2023/05/02 04:54:45;;;;;;;2.85;2.40;;;18.70;66.80;;;;;;5043220;28;45219;-72
2023/05/02 04:57:12;;;;;;;4.75;2.83;;;18.60;66.70;;;;;;5043163;28;45274;-71
2023/05/02 04:59:38;;;;;;;3.45;2.60;;;18.60;66.70;;;;;;5043633;28;45435;-72
2023/05/02 05:02:06;;;;;;;3.35;2.40;;;18.70;66.80;;;;;;5042582;28;47535;-72
2023/05/02 05:04:33;;;;;;;4.00;2.47;;;18.70;66.80;;;;;;5043230;28;45643;-72
2023/05/02 05:07:01;;;;;;;4.57;2.40;;;18.70;66.80;;;;;;5043725;28;45367;-71
2023/05/02 05:09:28;;;;;;;4.80;3.00;;;18.70;66.80;;;;;;5043679;28;45455;-71
2023/05/02 05:11:55;;;;;;;4.63;2.67;;;18.70;66.90;;;;;;5043333;27;45440;-71
2023/05/02 05:14:23;;;;;;;4.93;2.85;;;18.70;66.80;;;;;;5043326;28;45353;-72
2023/05/02 05:16:49;;;;;;;4.15;2.67;;;18.70;66.80;;;;;;5042971;28;45448;-71
2023/05/02 05:19:16;;;;;;;5.78;2.95;;;18.60;66.60;;;;;;5043521;28;45264;-72
2023/05/02 05:21:43;;;;;;;4.50;2.97;;;18.70;66.80;;;;;;5043028;28;47435;-72
2023/05/02 05:24:11;;;;;;;4.28;2.83;;;18.70;66.80;;;;;;5042852;28;45241;-72
2023/05/02 05:26:38;;;;;;;4.50;3.03;;;18.70;66.80;;;;;;5042611;28;45277;-72
2023/05/02 05:29:04;;;;;;;4.15;3.00;;;18.70;66.70;;;;;;5043640;28;45292;-72
2023/05/02 05:31:31;;;;;;;5.88;3.08;;;18.70;66.80;;;;;;5042993;28;47457;-72
2023/05/02 05:33:58;;;;;;;3.92;2.78;;;18.60;66.80;;;;;;5042825;28;45218;-72
2023/05/02 05:36:25;;;;;;;4.68;2.90;;;18.60;66.80;;;;;;5043453;28;45365;-71
2023/05/02 05:38:52;;;;;;;4.60;2.95;;;18.70;66.90;;;;;;5043289;28;45583;-72
2023/05/02 05:41:20;;;;;;;3.92;2.90;;;18.70;66.90;;;;;;5042557;28;46598;-71
2023/05/02 05:43:46;;;;;;;3.10;2.40;;;18.70;66.90;;;;;;5042598;28;45296;-72
2023/05/02 05:46:13;;;;;;;5.35;3.20;;;18.60;66.80;;;;;;5042502;28;45370;-72
2023/05/02 05:48:40;;;;;;;3.88;2.78;;;18.70;66.80;;;;;;5043228;28;45315;-71
2023/05/02 05:51:07;;;;;;;3.72;2.85;;;18.70;66.90;;;;;;5040830;28;47753;-72
2023/05/02 05:53:35;;;;;;;5.53;2.97;;;18.70;66.90;;;;;;5042768;28;45359;-72
2023/05/02 05:56:08;;;;;;;6.03;2.97;;;18.70;67.00;;;;;;5042107;28;45381;-72
2023/05/02 05:58:37;;;;;;;4.72;2.63;;;18.70;67.00;;;;;;5043205;28;45260;-72
2023/05/02 06:01:03;;;;;;;4.22;2.78;;;18.70;67.00;;;;;;5042434;28;47513;-72
2023/05/02 06:03:31;;;;;;;5.38;3.00;;;18.70;67.00;;;;;;5042627;28;45153;-71
2023/05/02 06:05:58;;;;;;;4.35;3.25;;;18.70;67.00;;;;;;5043211;28;45317;-72
2023/05/02 06:08:25;;;;;;;4.63;2.80;;;18.70;66.90;;;;;;5043016;27;45576;-72
2023/05/02 06:10:52;;;;;;;3.28;2.47;;;18.60;66.90;;;;;;5042639;28;46415;-71
2023/05/02 06:13:18;;;;;;;4.13;2.92;;;18.60;66.90;;;;;;5042297;28;45145;-72
2023/05/02 06:15:46;;;;;;;3.65;2.45;;;18.60;67.00;;;;;;5042364;28;45398;-72
2023/05/02 06:18:14;;;;;;;3.97;2.80;;;18.70;67.00;;;;;;5042725;28;45412;-71
2023/05/02 06:20:40;;;;;;;3.17;2.63;;;18.60;67.00;;;;;;5042226;28;46485;-72
2023/05/02 06:23:07;;;;;;;4.00;2.67;;;18.60;67.10;;;;;;5042109;28;45193;-72
2023/05/02 06:25:37;;;;;;;3.63;2.40;;;18.60;67.10;;;;;;5042299;28;45195;-71
2023/05/02 06:28:04;;;;;;;3.17;2.40;;;18.60;67.20;;;;;;5029415;28;45253;-72
2023/05/02 06:30:31;;;;;;;4.78;2.53;;;18.70;67.20;;;;;;5042275;28;46444;-71
2023/05/02 06:32:59;;;;;;;3.13;2.38;;;18.70;67.20;;;;;;5042326;28;45282;-71
2023/05/02 06:35:25;;;;;;;2.95;2.08;;;18.70;67.10;;;;;;5042439;28;45372;-72
2023/05/02 06:37:52;;;;;;;3.42;1.90;;;18.70;67.10;;;;;;5042475;28;45528;-72
2023/05/02 06:40:19;;;;;;;2.95;1.80;;;18.70;67.00;;;;;;5042128;27;45229;-72
2023/05/02 06:42:46;;;;;;;2.40;1.80;;;18.70;67.00;;;;;;5042073;28;46411;-71
2023/05/02 06:45:13;;;;;;;2.45;1.83;;;18.70;67.00;;;;;;5041493;28;45343;-71
2023/05/02 06:47:40;;;;;;;2.85;1.73;;;18.70;67.00;;;;;;5042453;28;45365;-72
2023/05/02 06:50:10;;;;;;;2.75;1.90;;;18.60;66.90;;;;;;5039985;28;46296;-72
2023/05/02 06:52:37;;;;;;;2.85;1.60;;;18.60;66.80;;;;;;5042402;28;45815;-71
2023/05/02 06:55:04;;;;;;;2.42;1.50;;;18.60;66.90;;;;;;5041912;28;45293;-69
2023/05/02 06:57:31;;;;;;;2.95;1.25;;;18.60;66.90;;;;;;5042533;28;45265;-71
2023/05/02 06:59:58;;;;;;;1.85;1.42;;;18.60;66.90;;;;;;5041842;28;47944;-71
2023/05/02 07:02:25;;;;;;;3.90;1.60;;;18.60;66.80;;;;;;5041879;28;45406;-72
2023/05/02 07:04:51;;;;;;;3.35;1.48;;;18.60;66.90;;;;;;5041600;28;45441;-71
2023/05/02 07:07:20;;;;;;;2.13;1.38;;;18.60;66.90;;;;;;5041722;28;45430;-71
2023/05/02 07:09:47;;;;;;;3.25;1.52;;;18.60;66.80;;;;;;5041983;28;48468;-71
2023/05/02 07:12:14;;;;;;;5.30;1.25;;;18.60;66.80;;;;;;5041800;28;45250;-72
2023/05/02 07:14:41;;;;;;;2.75;1.30;;;18.60;66.90;;;;;;5041746;27;45339;-71
2023/05/02 07:17:08;;;;;;;2.10;1.40;;;18.60;66.80;;;;;;5041722;28;45437;-71
2023/05/02 07:19:35;;;;;;;2.55;1.38;;;18.70;66.80;;;;;;5041669;27;45193;-72
2023/05/02 07:22:02;;;;;;;2.00;1.10;;;18.60;66.70;;;;;;5041773;28;45344;-72
2023/05/02 07:24:30;;;;;;;1.90;1.08;;;18.70;66.80;;;;;;5041846;28;45501;-72
2023/05/02 07:26:57;;;;;;;2.75;1.15;;;18.60;66.60;;;;;;5042291;28;45396;-71
2023/05/02 07:29:23;;;;;;;2.65;1.13;;;18.60;66.60;;;;;;5041783;28;46656;-71
2023/05/02 07:31:50;;;;;;;2.30;1.10;;;18.60;66.60;;;;;;5041682;28;45308;-71
2023/05/02 07:34:17;;;;;;;1.48;1.10;;;18.60;66.40;;;;;;5041683;28;45216;-71
2023/05/02 07:36:44;;;;;;;1.38;0.98;;;18.60;67.40;;;;;;5041556;28;45611;-72
2023/05/02 07:39:11;;;;;;;1.65;1.05;;;18.60;66.30;;;;;;5041691;28;45336;-72
2023/05/02 07:41:39;;;;;;;1.80;1.00;;;18.60;66.40;;;;;;5041915;28;45293;-71
2023/05/02 07:44:05;;;;;;;3.15;0.90;;;18.60;66.30;;;;;;5041221;28;45242;-72
2023/05/02 07:46:32;;;;;;;2.40;0.90;;;18.60;66.30;;;;;;5041074;28;45582;-71
2023/05/02 07:48:59;;;;;;;1.27;0.82;;;18.60;66.30;;;;;;5041492;28;46404;-71
2023/05/02 07:51:26;;;;;;;2.75;1.15;;;18.60;66.30;;;;;;5040018;28;45418;-72
2023/05/02 07:53:57;;;;;;;1.75;1.10;;;18.60;66.40;;;;;;5041272;28;45469;-72
2023/05/02 07:56:24;;;;;;;1.02;0.60;;;18.60;66.30;;;;;;5041572;28;45200;-72
2023/05/02 07:58:52;;;;;;;1.55;0.70;;;18.60;66.30;;;;;;5041316;28;47014;-72
2023/05/02 08:01:19;;;;;;;1.77;0.93;;;18.60;66.30;;;;;;5041026;28;45375;-72
2023/05/02 08:03:46;;;;;;;2.03;0.80;;;18.70;66.40;;;;;;5041320;28;45246;-72
2023/05/02 08:06:13;;;;;;;2.75;0.70;;;18.60;66.30;;;;;;5041088;28;45291;-72
2023/05/02 08:08:39;;;;;;;1.50;0.73;;;18.60;66.20;;;;;;5041236;28;46604;-71
2023/05/02 08:11:06;;;;;;;1.90;0.80;;;18.60;65.90;;;;;;5041239;28;45254;-72
2023/05/02 08:13:33;;;;;;;2.40;1.08;;;18.60;65.90;;;;;;5041180;28;45309;-72
2023/05/02 08:16:01;;;;;;;0.75;0.60;;;18.60;65.90;;;;;;5040946;28;45537;-71
2023/05/02 08:18:28;;;;;;;2.47;0.70;;;18.60;65.80;;;;;;5040456;28;45381;-72
2023/05/02 08:20:57;;;;;;;2.22;1.00;;;18.60;65.70;;;;;;5041157;28;45490;-72
2023/05/02 08:23:24;;;;;;;1.58;0.80;;;18.60;65.60;;;;;;5041249;28;45239;-72
2023/05/02 08:25:50;;;;;;;1.25;0.90;;;18.60;65.50;;;;;;5040303;28;45339;-72
2023/05/02 08:28:18;;;;;;;2.63;0.80;;;18.60;65.40;;;;;;5041041;28;46678;-71
2023/05/02 08:30:45;;;;;;;2.40;0.93;;;18.60;65.10;;;;;;5040970;28;45271;-71
2023/05/02 08:33:13;;;;;;;1.38;0.70;;;18.60;65.10;;;;;;5040981;28;45307;-72
2023/05/02 08:35:40;;;;;;;1.10;0.80;;;18.60;65.10;;;;;;5040851;28;45274;-71
2023/05/02 08:38:07;;;;;;;2.17;0.77;;;18.60;65.30;;;;;;5040528;28;47658;-71
2023/05/02 08:40:37;;;;;;;1.20;0.80;;;18.60;65.10;;;;;;5040723;28;45362;-72
2023/05/02 08:43:04;;;;;;;1.55;0.70;;;18.60;65.30;;;;;;5040551;28;45275;-72
2023/05/02 08:45:37;;;;;;;1.35;0.85;;;18.60;65.20;;;;;;5040012;28;45368;-72
2023/05/02 08:48:07;;;;;;;2.92;0.88;;;18.60;65.20;;;;;;5040716;28;46056;-72
2023/05/02 08:50:38;;;;;;;3.35;0.90;;;18.60;65.00;;;;;;5040140;28;45311;-72
2023/05/02 08:53:06;;;;;;;2.63;0.70;;;18.60;64.70;;;;;;5040660;28;45238;-72
2023/05/02 08:55:34;;;;;;;2.35;0.85;;;18.60;64.60;;;;;;5040766;28;45654;-72
2023/05/02 08:58:02;;;;;;;1.23;0.85;;;18.60;64.50;;;;;;5040089;28;46061;-71
2023/05/02 09:00:30;;;;;;;2.22;0.80;;;18.60;64.30;;;;;;5040567;28;45252;-71
2023/05/02 09:03:06;;;;;;;2.88;0.75;;;18.60;64.40;;;;;;5040715;28;45333;-72
2023/05/02 09:05:40;;;;;;;1.92;0.88;;;18.60;64.30;;;;;;5040796;28;45340;-72
2023/05/02 09:08:07;;;;;;;1.95;0.75;;;18.60;64.20;;;;;;5040074;28;47070;-72
2023/05/02 09:10:36;;;;;;;2.03;0.80;;;18.60;64.30;;;;;;5040018;28;45217;-72
2023/05/02 09:13:30;;;;;;;1.05;0.65;;;18.60;64.20;;;;;;5040188;28;45313;-71
2023/05/02 09:15:58;;;;;;;1.45;0.60;;;18.60;64.20;;;;;;5040717;28;45383;-72
2023/05/02 09:18:29;;;;;;;1.33;0.68;;;18.60;64.50;;;;;;5040077;28;46244;-72
2023/05/02 09:20:58;;;;;;;2.10;0.65;;;18.60;64.30;;;;;;5040333;28;45266;-72
2023/05/02 09:23:33;;;;;;;1.95;0.60;;;18.60;64.50;;;;;;5039873;28;45237;-72
2023/05/02 09:26:00;;;;;;;1.95;0.70;;;18.60;64.30;;;;;;5039972;28;45402;-71
2023/05/02 09:28:41;;;;;;;2.25;0.55;;;18.60;64.40;;;;;;5039436;28;47158;-71
2023/05/02 09:31:09;;;;;;;2.28;0.80;;;18.60;64.40;;;;;;5040727;28;45859;-71
2023/05/02 09:33:36;;;;;;;2.03;0.70;;;18.60;64.40;;;;;;5043137;28;45439;-71
2023/05/02 09:36:06;;;;;;;0.90;0.60;;;18.60;64.20;;;;;;5042848;28;45399;-72
2023/05/02 09:38:33;;;;;;;3.13;0.95;;;18.60;63.90;;;;;;5043000;28;46387;-72
2023/05/02 09:41:02;;;;;;;1.88;0.73;;;18.60;63.70;;;;;;5043345;28;45353;-72
2023/05/02 09:43:29;;;;;;;2.92;0.90;;;18.60;63.40;;;;;;5042978;28;45341;-72
2023/05/02 09:46:01;;;;;;;1.60;0.70;;;18.60;63.30;;;;;;5042469;28;45477;-72
2023/05/02 09:48:28;;;;;;;1.35;0.65;;;18.60;63.30;;;;;;5042968;28;46566;-71
2023/05/02 09:50:55;;;;;;;3.53;0.90;;;18.60;63.10;;;;;;5042975;28;45423;-72
2023/05/02 09:53:25;;;;;;;2.28;0.80;;;18.60;63.10;;;;;;5043213;28;45313;-72
2023/05/02 09:56:00;;;;;;;1.98;0.77;;;18.60;62.90;;;;;;5042688;28;45257;-72
2023/05/02 09:58:27;;;;;;;3.90;0.80;;;18.60;62.80;;;;;;5042584;28;46290;-72
2023/05/02 10:00:54;;;;;;;1.48;0.60;;;18.60;63.10;;;;;;5043110;28;45660;-72
2023/05/02 10:03:24;;;;;;;1.50;0.77;;;18.60;64.30;;;;;;5042915;27;45273;-72
2023/05/02 10:05:52;;;;;;;3.63;0.65;;;18.60;63.20;;;;;;5042664;28;45336;-72
2023/05/02 10:08:20;;;;;;;1.65;0.90;;;18.60;63.20;;;;;;5042602;28;48402;-72
2023/05/02 10:10:52;;;;;;;1.40;0.82;;;18.60;63.30;;;;;;5042898;28;45391;-72
2023/05/02 10:13:21;;;;;;;1.48;0.70;;;18.60;63.30;;;;;;5042867;28;45205;-71
2023/05/02 10:15:53;;;;;;;2.05;0.80;;;18.60;63.40;;;;;;5042321;27;45773;-71
2023/05/02 10:18:27;;;;;;;1.45;0.68;;;18.60;63.30;;;;;;5042378;28;46249;-71
2023/05/02 10:20:57;;;;;;;2.72;0.82;;;18.60;63.10;;;;;;5042992;28;46219;-71
2023/05/02 10:23:26;;;;;;;1.83;0.82;;;18.60;62.90;;;;;;5042770;27;45350;-71
2023/05/02 10:25:55;;;;;;;2.58;0.73;;;18.60;62.60;;;;;;5042423;28;45326;-71
2023/05/02 10:28:22;;;;;;;2.05;0.70;;;18.60;62.40;;;;;;5042192;28;46559;-71
2023/05/02 10:30:50;;;;;;;2.22;0.77;;;18.60;62.30;;;;;;5042308;28;45253;-72
2023/05/02 10:33:18;;;;;;;2.25;0.90;;;18.60;62.20;;;;;;5042291;28;45342;-72
2023/05/02 10:35:46;;;;;;;3.58;1.27;;;18.60;62.20;;;;;;5042512;28;45228;-72
2023/05/02 10:38:16;;;;;;;1.67;0.75;;;18.60;62.10;;;;;;5042456;28;45289;-72
2023/05/02 10:40:54;;;;;;;2.72;1.15;;;18.60;62.10;;;;;;5042437;28;45534;-72
2023/05/02 10:43:25;;;;;;;2.60;0.82;;;18.60;62.20;;;;;;5026378;28;45435;-72
2023/05/02 10:45:53;;;;;;;1.70;0.70;;;18.60;62.30;;;;;;5041581;28;45338;-71
2023/05/02 10:48:21;;;;;;;2.42;1.42;;;18.60;62.60;;;;;;5042280;28;47813;-72
2023/05/02 10:50:50;;;;;;;2.03;0.80;;;18.60;62.70;;;;;;5041589;28;45307;-72
2023/05/02 10:53:28;;;;;;;2.05;1.10;;;18.60;62.60;;;;;;5042404;28;45232;-72
2023/05/02 10:56:19;;;;;;;2.53;1.00;;;18.60;62.70;;;;;;5042278;28;45252;-72
2023/05/02 10:58:49;;;;;;;0.90;0.60;;;18.60;62.40;;;;;;5041959;28;47697;-72
2023/05/02 11:01:38;;;;;;;1.65;0.75;;;18.60;62.40;;;;;;5042729;28;45339;-72
2023/05/02 11:04:07;;;;;;;1.80;0.77;;;18.60;62.30;;;;;;5041518;27;45326;-72
2023/05/02 11:06:35;;;;;;;0.95;0.82;;;18.60;62.20;;;;;;5042340;28;45157;-71
2023/05/02 11:09:35;;;;;;;1.30;0.70;;;18.60;62.20;;;;;;5041996;28;47013;-72
2023/05/02 11:12:03;;;;;;;3.58;1.10;;;18.60;61.70;;;;;;5042502;28;45425;-71
2023/05/02 11:14:51;;;;;;;4.00;1.08;;;18.60;61.40;;;;;;5041743;28;45331;-72
2023/05/02 11:17:19;;;;;;;2.72;0.88;;;18.60;61.20;;;;;;5042378;28;45321;-71
2023/05/02 11:20:23;;;;;;;0.65;0.60;;;18.60;61.40;;;;;;5041766;28;46672;-72
2023/05/02 11:22:50;;;;;;;4.32;1.02;;;18.60;61.20;;;;;;5021844;28;45373;-71
2023/05/02 11:25:33;;;;;;;2.00;0.80;;;18.60;61.10;;;;;;5021759;28;45368;-71
2023/05/02 11:28:01;;;;;;;2.47;0.80;;;18.60;61.50;;;;;;5023649;28;45428;-71
2023/05/02 11:30:40;;;;;;;3.15;0.88;;;18.60;61.80;;;;;;5041838;28;47552;-71
2023/05/02 11:33:18;;;;;;;2.58;0.77;;;18.60;61.90;;;;;;5041954;28;45343;-71
2023/05/02 11:35:46;;;;;;;1.27;0.80;;;18.60;61.70;;;;;;5041389;28;45531;-71
2023/05/02 11:38:21;;;;;;;2.80;1.00;;;18.60;61.70;;;;;;5041860;28;45267;-71
2023/05/02 11:40:58;;;;;;;2.60;0.80;;;18.60;61.60;;;;;;5041779;28;47315;-71
2023/05/02 11:43:27;;;;;;;2.13;0.90;;;18.60;61.50;;;;;;5041518;28;45179;-71
2023/05/02 11:45:58;;;;;;;1.88;0.95;;;18.60;61.50;;;;;;5041178;28;45449;-71
2023/05/02 11:48:27;;;;;;;2.35;0.90;;;18.60;61.60;;;;;;5041793;28;45263;-71
2023/05/02 11:50:56;;;;;;;2.35;0.88;;;18.60;61.20;;;;;;5039236;28;48214;-71
2023/05/02 11:53:24;;;;;;;5.00;1.17;;;18.60;60.50;;;;;;5040704;27;45292;-71
2023/05/02 11:55:53;;;;;;;2.25;0.90;;;18.60;60.70;;;;;;5041263;27;45274;-72
2023/05/02 11:58:21;;;;;;;4.10;1.00;;;18.60;60.50;;;;;;5032459;28;45297;-71
2023/05/02 12:00:48;;;;;;;1.17;0.70;;;18.60;60.50;;;;;;5037458;28;46550;-71
2023/05/02 12:03:28;;;;;;;1.77;0.85;;;18.60;60.20;;;;;;5040519;28;45193;-71
2023/05/02 12:05:55;;;;;;;1.30;0.73;;;18.60;60.20;;;;;;5041686;28;45334;-71
2023/05/02 12:08:24;;;;;;;1.80;0.88;;;18.60;60.10;;;;;;5041399;28;45599;-71
2023/05/02 12:10:52;;;;;;;3.00;1.20;;;18.60;60.10;;;;;;5041455;28;45307;-72
2023/05/02 12:13:20;;;;;;;1.70;1.05;;;18.70;60.60;;;;;;5041234;28;45317;-71
2023/05/02 12:15:48;;;;;;;2.33;0.98;;;18.60;60.60;;;;;;5041058;28;45461;-71
2023/05/02 12:18:15;;;;;;;1.55;0.70;;;18.70;60.80;;;;;;5041626;28;45494;-72
2023/05/02 12:20:44;;;;;;;2.83;0.80;;;18.70;60.80;;;;;;5040976;28;46293;-72
2023/05/02 12:23:12;;;;;;;1.25;0.80;;;18.70;60.60;;;;;;5040964;28;45272;-71
2023/05/02 12:25:40;;;;;;;1.75;0.90;;;18.60;60.60;;;;;;5040944;27;45158;-71
2023/05/02 12:28:07;;;;;;;1.05;0.70;;;18.70;60.70;;;;;;5041378;28;45231;-71
2023/05/02 12:30:34;;;;;;;1.35;0.73;;;18.70;60.50;;;;;;5041157;28;46570;-71
2023/05/02 12:33:02;;;;;;;2.75;0.77;;;18.70;60.30;;;;;;5040795;28;45342;-71
2023/05/02 12:35:30;;;;;;;1.92;0.90;;;18.70;60.00;;;;;;5040792;28;45439;-71
2023/05/02 12:38:11;;;;;;;1.30;0.70;;;18.70;59.70;;;;;;5040921;28;45396;-71
2023/05/02 12:40:38;;;;;;;1.67;0.70;;;18.70;59.60;;;;;;5040842;27;45379;-71
2023/05/02 12:43:09;;;;;;;2.00;0.80;;;18.70;59.60;;;;;;5040194;28;45206;-71
2023/05/02 12:45:37;;;;;;;3.05;1.05;;;18.60;59.10;;;;;;5039847;28;45341;-71
2023/05/02 12:48:18;;;;;;;2.08;0.60;;;18.70;59.10;;;;;;5040816;28;45185;-71
2023/05/02 12:50:45;;;;;;;1.73;0.80;;;18.70;59.00;;;;;;5039517;28;45473;-71
2023/05/02 12:53:14;;;;;;;1.50;0.80;;;18.70;59.10;;;;;;5040234;28;46390;-71
2023/05/02 12:55:41;;;;;;;1.17;0.50;;;18.70;59.60;;;;;;5040651;27;45354;-70
2023/05/02 12:58:08;;;;;;;1.73;0.80;;;18.70;59.70;;;;;;5040536;28;45313;-71